Evergem, Belgium
Current Conditions -  °F | °C
As of 6:25 PM on Saturday 25 Oct 2014 (Local Time) from EHFS Reporting Station
Few Clouds Few Clouds  
Wind Chill: 55°   Ceiling: Unl
Heat Index: 55°   Visibility: 6mi
Dew Point: 48°   Wind: 14mph
Humidity: 77%   Direction: 220°SW
Pressure: 30.12"   Gusts: NA
Location:  51.11°N, 3.7°E
Report Text: EHFS 251625Z AUTO 22012KT 9999 FEW042/// 13/09 Q1020
Loading
Personal Weather Stations






























Interactive Weather Map New forecast layout! Learn more

10-Day Weather Forecast

Advertisements
Track Severe Weather on mobile